| time (UTC) | temp F | wind direction | speed MPH | gust MPH | rain 1hr in | rain 24hr in | rain mn in | humidity % | barometer mb |
| 20260507204532 | 52 | 160 | 0.0 | 2.0 | 0.00 | 0.07 | 0.04 | 90 | 1013.7 |
| 20260507203023 | 52 | 145 | 0.0 | 0.0 | 0.00 | 0.07 | 0.04 | 89 | 1013.5 |
| 20260507201516 | 52 | 145 | 0.0 | 1.0 | 0.00 | 0.07 | 0.04 | 89 | 1013.3 |
| 20260507200005 | 53 | 145 | 0.0 | 1.0 | 0.00 | 0.16 | 0.04 | 88 | 1012.8 |
| 20260507194601 | 53 | 145 | 0.0 | 1.0 | 0.00 | 0.16 | 0.04 | 87 | 1012.7 |
| 20260507193056 | 54 | 145 | 0.0 | 0.0 | 0.00 | 0.16 | 0.04 | 86 | 1012.5 |
| 20260507191544 | 55 | 145 | 0.0 | 0.0 | 0.00 | 0.16 | 0.04 | 84 | 1012.3 |
| 20260507190037 | 56 | 145 | 0.0 | 0.0 | 0.00 | 0.16 | 0.04 | 84 | 1012.0 |
| 20260507184524 | 56 | 167 | 0.0 | 0.0 | 0.00 | 0.17 | 0.04 | 83 | 1011.7 |
| 20260507183014 | 57 | 241 | 0.0 | 0.0 | 0.00 | 0.17 | 0.04 | 81 | 1011.4 |
| 20260507181501 | 58 | 200 | 0.0 | 2.0 | 0.00 | 0.17 | 0.04 | 81 | 1011.1 |
| 20260507180106 | 58 | 257 | 0.0 | 2.0 | 0.00 | 0.17 | 0.04 | 81 | 1010.8 |
| 20260507174617 | 58 | 274 | 1.0 | 3.0 | 0.00 | 0.17 | 0.04 | 80 | 1010.7 |
| 20260507173042 | 59 | 249 | 0.0 | 3.0 | 0.00 | 0.17 | 0.04 | 79 | 1010.5 |
| 20260507171545 | 59 | 246 | 2.0 | 10.0 | 0.00 | 0.17 | 0.04 | 78 | 1010.4 |
| 20260507170026 | 59 | 259 | 1.0 | 3.0 | 0.00 | 0.17 | 0.04 | 78 | 1010.2 |
| 20260507164516 | 59 | 249 | 2.0 | 3.0 | 0.00 | 0.17 | 0.04 | 79 | 1010.1 |
| 20260507163006 | 59 | 259 | 1.0 | 3.0 | 0.00 | 0.17 | 0.04 | 79 | 1010.1 |
| 20260507161602 | 59 | 259 | 1.0 | 3.0 | 0.00 | 0.17 | 0.04 | 79 | 1010.1 |
| 20260507160113 | 59 | 244 | 1.0 | 3.0 | 0.00 | 0.17 | 0.04 | 77 | 1010.2 |
| 20260507154543 | 59 | 244 | 1.0 | 3.0 | 0.00 | 0.17 | 0.04 | 78 | 1010.2 |
| 20260507153034 | 60 | 253 | 2.0 | 3.0 | 0.00 | 0.17 | 0.04 | 78 | 1010.2 |
| 20260507151527 | 60 | 245 | 1.0 | 3.0 | 0.00 | 0.17 | 0.04 | 79 | 1010.4 |
| 20260507150018 | 61 | 249 | 2.0 | 9.0 | 0.00 | 0.17 | 0.04 | 77 | 1010.5 |
| 20260507144509 | 61 | 177 | 2.0 | 7.0 | 0.00 | 0.17 | 0.04 | 77 | 1010.6 |
| 20260507143119 | 62 | 223 | 1.0 | 5.0 | 0.00 | 0.17 | 0.04 | 77 | 1010.7 |
| 20260507141610 | 62 | 165 | 2.0 | 6.0 | 0.00 | 0.17 | 0.04 | 75 | 1010.9 |
| 20260507140047 | 64 | 237 | 2.0 | 5.0 | 0.00 | 0.17 | 0.04 | 77 | 1010.9 |
| 20260507134537 | 64 | 147 | 1.0 | 8.0 | 0.00 | 0.28 | 0.04 | 75 | 1011.1 |
| 20260507133027 | 66 | 108 | 4.0 | 10.0 | 0.00 | 0.28 | 0.04 | 66 | 1011.4 |
| 20260507131533 | 63 | 301 | 7.0 | 11.0 | 0.00 | 0.28 | 0.04 | 67 | 1011.7 |
| 20260507130011 | 63 | 306 | 5.0 | 11.0 | 0.00 | 0.51 | 0.04 | 66 | 1011.7 |
| 20260507124605 | 62 | 301 | 4.0 | 14.0 | 0.00 | 0.51 | 0.04 | 69 | 1011.4 |
| 20260507123102 | 63 | 282 | 1.0 | 4.0 | 0.00 | 0.51 | 0.04 | 77 | 1011.1 |
| 20260507121546 | 64 | 249 | 1.0 | 3.0 | 0.00 | 0.51 | 0.04 | 79 | 1010.9 |
| 20260507120041 | 67 | 137 | 4.0 | 12.0 | 0.00 | 0.51 | 0.04 | 60 | 1010.9 |
| 20260507114528 | 69 | 129 | 7.0 | 13.0 | 0.00 | 0.52 | 0.04 | 58 | 1010.9 |
| 20260507113049 | 68 | 131 | 7.0 | 13.0 | 0.00 | 0.52 | 0.04 | 60 | 1011.2 |
| 20260507111510 | 67 | 97 | 5.0 | 11.0 | 0.00 | 0.52 | 0.04 | 65 | 1011.3 |
| 20260507110002 | 68 | 135 | 6.0 | 12.0 | 0.00 | 0.52 | 0.04 | 62 | 1011.5 |
| 20260507104607 | 64 | 122 | 2.0 | 7.0 | 0.00 | 0.52 | 0.04 | 72 | 1011.7 |
| 20260507103050 | 65 | 107 | 6.0 | 9.0 | 0.00 | 0.52 | 0.04 | 67 | 1012.0 |
| 20260507101543 | 62 | 124 | 3.0 | 6.0 | 0.00 | 0.52 | 0.04 | 77 | 1012.1 |
| 20260507100046 | 58 | 353 | 0.0 | 0.0 | 0.00 | 0.52 | 0.04 | 85 | 1012.3 |
| 20260507094529 | 59 | 353 | 0.0 | 0.0 | 0.00 | 0.55 | 0.04 | 82 | 1012.4 |
| 20260507093027 | 60 | 353 | 0.0 | 2.0 | 0.00 | 0.55 | 0.04 | 80 | 1012.4 |
| 20260507091513 | 62 | 321 | 1.0 | 4.0 | 0.00 | 0.55 | 0.04 | 68 | 1012.4 |
| 20260507090006 | 61 | 294 | 0.0 | 3.0 | 0.00 | 0.56 | 0.04 | 69 | 1012.5 |
| 20260507084602 | 59 | 337 | 0.0 | 4.0 | 0.00 | 0.56 | 0.04 | 73 | 1012.6 |
| 20260507083044 | 58 | 338 | 0.0 | 3.0 | 0.00 | 0.56 | 0.04 | 76 | 1012.6 |
| 20260507081538 | 57 | 73 | 0.0 | 4.0 | 0.00 | 0.56 | 0.04 | 82 | 1012.6 |
| 20260507080032 | 56 | 360 | 0.0 | 3.0 | 0.00 | 0.56 | 0.04 | 80 | 1012.7 |
| 20260507074522 | 56 | 59 | 0.0 | 3.0 | 0.00 | 0.59 | 0.04 | 86 | 1013.0 |
| 20260507073013 | 54 | 84 | 0.0 | 2.0 | 0.00 | 0.59 | 0.04 | 90 | 1013.1 |
| 20260507071507 | 53 | 81 | 0.0 | 3.0 | 0.00 | 0.59 | 0.04 | 93 | 1013.1 |
| 20260507070110 | 52 | 79 | 1.0 | 2.0 | 0.00 | 0.59 | 0.04 | 96 | 1013.0 |
| 20260507064553 | 49 | 89 | 0.0 | 0.0 | 0.00 | 0.66 | 0.04 | 96 | 1013.1 |
| 20260507063050 | 47 | 150 | 0.0 | 0.0 | 0.00 | 0.66 | 0.04 | 96 | 1013.1 |
| 20260507061538 | 46 | 150 | 0.0 | 0.0 | 0.00 | 0.66 | 0.04 | 96 | 1013.2 |
| 20260507060033 | 45 | 150 | 0.0 | 0.0 | 0.00 | 0.72 | 0.04 | 96 | 1013.1 |
| 20260507054509 | 45 | 150 | 0.0 | 0.0 | 0.00 | 0.72 | 0.04 | 96 | 1013.0 |
| 20260507053100 | 44 | 150 | 0.0 | 0.0 | 0.00 | 0.72 | 0.04 | 95 | 1012.8 |
| 20260507051600 | 44 | 150 | 0.0 | 0.0 | 0.00 | 0.72 | 0.04 | 95 | 1012.7 |
| 20260507044546 | 45 | 150 | 0.0 | 0.0 | 0.00 | 0.87 | 0.04 | 95 | 1012.3 |
| 20260507043030 | 45 | 150 | 0.0 | 0.0 | 0.00 | 0.87 | 0.04 | 95 | 1012.3 |
| 20260507041521 | 45 | 150 | 0.0 | 2.0 | 0.00 | 0.87 | 0.04 | 95 | 1012.1 |
| 20260507040020 | 45 | 150 | 0.0 | 1.0 | 0.00 | 1.09 | 0.04 | 95 | 1012.2 |
| 20260507034510 | 46 | 150 | 0.0 | 2.0 | 0.00 | 1.09 | 0.04 | 95 | 1012.3 |
| 20260507033003 | 46 | 150 | 0.0 | 2.0 | 0.00 | 1.09 | 0.04 | 95 | 1012.1 |
| 20260507031559 | 46 | 150 | 2.0 | 3.0 | 0.00 | 1.09 | 0.04 | 95 | 1012.1 |
| 20260507030051 | 47 | 153 | 0.0 | 1.0 | 0.00 | 1.09 | 0.04 | 95 | 1012.0 |
| 20260507024547 | 47 | 153 | 0.0 | 2.0 | 0.00 | 1.21 | 0.04 | 95 | 1012.0 |
| 20260507023037 | 47 | 153 | 0.0 | 2.0 | 0.00 | 1.21 | 0.04 | 95 | 1012.2 |
| 20260507021545 | 47 | 153 | 0.0 | 1.0 | 0.00 | 1.21 | 0.04 | 95 | 1012.1 |
| 20260507020024 | 48 | 153 | 0.0 | 3.0 | 0.00 | 1.21 | 0.04 | 95 | 1011.9 |
| 20260507014514 | 48 | 291 | 0.0 | 2.0 | 0.00 | 1.22 | 0.04 | 95 | 1011.5 |
| 20260507013008 | 48 | 291 | 0.0 | 2.0 | 0.00 | 1.22 | 0.04 | 95 | 1011.3 |
| 20260507011605 | 48 | 156 | 2.0 | 4.0 | 0.00 | 1.22 | 0.04 | 95 | 1011.5 |
| 20260507010059 | 48 | 133 | 0.0 | 2.0 | 0.00 | 1.22 | 0.04 | 95 | 1011.4 |
| 20260507004549 | 49 | 310 | 0.0 | 2.0 | 0.00 | 1.22 | 0.04 | 95 | 1011.4 |
| 20260507003043 | 49 | 310 | 1.0 | 3.0 | 0.00 | 1.22 | 0.04 | 95 | 1011.4 |
| 20260507001538 | 50 | 309 | 0.0 | 1.0 | 0.00 | 1.22 | 0.04 | 95 | 1011.5 |
| 20260507000035 | 50 | 309 | 0.0 | 1.0 | 0.00 | 1.22 | 0.04 | 95 | 1011.4 |
| 20260506234525 | 50 | 309 | 0.0 | 3.0 | 0.00 | 1.24 | 0.04 | 95 | 1011.4 |
| 20260506233020 | 51 | 169 | 0.0 | 3.0 | 0.02 | 1.24 | 0.04 | 95 | 1011.6 |
| 20260506231512 | 51 | 144 | 0.0 | 1.0 | 0.04 | 1.24 | 0.04 | 95 | 1011.5 |
| 20260506230110 | 51 | 144 | 0.0 | 2.0 | 0.04 | 1.24 | 0.04 | 95 | 1011.5 |
| 20260506224547 | 51 | 144 | 0.0 | 2.0 | 0.03 | 1.23 | 0.03 | 95 | 1011.4 |
| 20260506223037 | 51 | 144 | 0.0 | 2.0 | 0.02 | 1.21 | 0.02 | 95 | 1011.5 |
| 20260506221530 | 51 | 144 | 0.0 | 2.0 | 0.01 | 1.20 | 0.00 | 95 | 1011.5 |
| 20260506220032 | 51 | 314 | 0.0 | 1.0 | 0.01 | 1.20 | 0.00 | 95 | 1011.2 |
| 20260506214516 | 51 | 314 | 0.0 | 2.0 | 0.02 | 1.25 | 1.20 | 95 | 1011.1 |
| 20260506213008 | 51 | 148 | 0.0 | 0.0 | 0.02 | 1.25 | 1.20 | 94 | 1011.0 |
| 20260506211557 | 51 | 158 | 0.0 | 0.0 | 0.02 | 1.24 | 1.19 | 94 | 1011.1 |
| 20260506210048 | 51 | 266 | 0.0 | 3.0 | 0.02 | 1.24 | 1.18 | 94 | 1011.1 |